createdAt,value
2019-05-01T00:00:27.877Z,98573.56
2019-05-01T00:03:16.431Z,98575.40
2019-05-01T00:05:45.765Z,98574.53
2019-05-01T00:08:12.440Z,98569.25
2019-05-01T00:10:38.948Z,98570.53
2019-05-01T00:13:06.213Z,98571.47
2019-05-01T00:15:34.346Z,98568.42
2019-05-01T00:18:01.010Z,98558.84
2019-05-01T00:20:27.907Z,98558.94
2019-05-01T00:22:54.531Z,98552.94
2019-05-01T00:25:21.117Z,98552.56
2019-05-01T00:27:47.601Z,98553.44
2019-05-01T00:30:29.286Z,98552.69
2019-05-01T00:32:45.796Z,98551.48
2019-05-01T00:35:12.359Z,98550.18
2019-05-01T00:37:38.852Z,98551.49
2019-05-01T00:40:05.561Z,98544.51
2019-05-01T00:42:32.045Z,98545.41
2019-05-01T00:44:58.833Z,98547.19
2019-05-01T00:47:25.628Z,98534.10
2019-05-01T00:49:52.263Z,98532.40
2019-05-01T00:52:18.744Z,98533.31
2019-05-01T00:54:47.559Z,98533.75
2019-05-01T00:57:38.332Z,98535.45
2019-05-01T01:00:19.202Z,98535.94
2019-05-01T01:02:49.037Z,98533.77
2019-05-01T01:05:15.615Z,98533.45
2019-05-01T01:07:42.131Z,98534.85
2019-05-01T01:10:08.699Z,98537.14
2019-05-01T01:12:35.356Z,98527.63
2019-05-01T01:15:01.866Z,98530.33
2019-05-01T01:17:28.303Z,98529.53
2019-05-01T01:19:54.808Z,98523.02
2019-05-01T01:22:27.322Z,98529.11
2019-05-01T01:24:54.212Z,98525.14
2019-05-01T01:27:20.713Z,98526.45
2019-05-01T01:29:47.383Z,98523.84
2019-05-01T01:32:13.884Z,98523.45
2019-05-01T01:34:40.757Z,98526.06
2019-05-01T01:37:07.994Z,98529.95
2019-05-01T01:39:34.892Z,98530.78
2019-05-01T01:42:01.532Z,98525.52
2019-05-01T01:44:39.865Z,98525.54
2019-05-01T01:47:06.461Z,98524.23
2019-05-01T01:49:33.085Z,98515.50
2019-05-01T01:51:59.992Z,98513.72
2019-05-01T01:54:27.009Z,98503.27
2019-05-01T01:56:53.813Z,98505.88
2019-05-01T01:59:20.922Z,98506.34
2019-05-01T02:02:09.915Z,98500.67
2019-05-01T02:05:13.883Z,98503.73
2019-05-01T02:07:40.628Z,98500.71
2019-05-01T02:10:07.709Z,98495.07
2019-05-01T02:12:35.177Z,98488.14
2019-05-01T02:15:01.668Z,98476.83
2019-05-01T02:17:28.163Z,98478.13
2019-05-01T02:19:54.767Z,98481.59
2019-05-01T02:22:21.212Z,98474.65
2019-05-01T02:24:47.745Z,98482.45
2019-05-01T02:27:19.861Z,98485.05
2019-05-01T02:29:50.792Z,98483.75
2019-05-01T02:32:19.025Z,98489.39
2019-05-01T02:34:46.389Z,98479.73
2019-05-01T02:37:14.432Z,98490.09
2019-05-01T02:39:42.027Z,98487.89
2019-05-01T02:42:10.221Z,98482.63
2019-05-01T02:44:38.961Z,98490.91
2019-05-01T02:47:09.491Z,98487.47
2019-05-01T02:49:50.057Z,98475.71
2019-05-01T02:52:16.877Z,98479.12
2019-05-01T02:54:44.732Z,98481.72
2019-05-01T02:57:14.070Z,98474.70
2019-05-01T02:59:49.247Z,98472.47
2019-05-01T03:02:16.339Z,98469.79
2019-05-01T03:04:43.767Z,98473.22
2019-05-01T03:07:10.842Z,98469.65
2019-05-01T03:09:37.750Z,98467.75
2019-05-01T03:12:05.128Z,98461.97
2019-05-01T03:14:34.317Z,98463.98
2019-05-01T03:17:03.199Z,98466.97
2019-05-01T03:20:04.793Z,98459.45
2019-05-01T03:22:43.849Z,98465.00
2019-05-01T03:25:11.265Z,98466.56
2019-05-01T03:27:38.063Z,98468.23
2019-05-01T03:30:04.807Z,98463.81
2019-05-01T03:32:31.878Z,98459.32
2019-05-01T03:34:58.440Z,98461.49
2019-05-01T03:37:25.255Z,98457.95
2019-05-01T03:39:52.490Z,98461.43
2019-05-01T03:42:19.060Z,98460.51
2019-05-01T03:44:45.647Z,98455.23
2019-05-01T03:47:14.394Z,98455.23
2019-05-01T03:49:41.909Z,98450.86
2019-05-01T03:52:08.683Z,98449.08
2019-05-01T03:54:35.286Z,98449.91
2019-05-01T03:57:01.880Z,98454.64
2019-05-01T03:59:28.752Z,98458.06
2019-05-01T04:02:32.359Z,98460.65
2019-05-01T04:04:46.444Z,98453.97
2019-05-01T04:07:13.047Z,98456.97
2019-05-01T04:09:40.407Z,98458.77
2019-05-01T04:12:07.103Z,98456.97
2019-05-01T04:14:34.105Z,98455.73
2019-05-01T04:17:09.122Z,98461.41
2019-05-01T04:19:36.205Z,98454.42
2019-05-01T04:22:09.687Z,98453.05
2019-05-01T04:24:36.326Z,98457.80
2019-05-01T04:27:04.921Z,98449.49
2019-05-01T04:29:40.940Z,98452.56
2019-05-01T04:32:14.291Z,98452.14
2019-05-01T04:35:00.814Z,98447.35
2019-05-01T04:37:27.811Z,98452.56
2019-05-01T04:39:54.372Z,98449.05
2019-05-01T04:42:21.922Z,98451.25
2019-05-01T04:44:48.826Z,98448.59
2019-05-01T04:47:16.065Z,98442.39
2019-05-01T04:49:42.679Z,98444.53
2019-05-01T04:52:09.399Z,98451.88
2019-05-01T04:54:36.095Z,98451.02
2019-05-01T04:57:03.097Z,98453.57
2019-05-01T04:59:29.706Z,98439.88
2019-05-01T05:04:32.522Z,98439.32
2019-05-01T05:06:59.857Z,98445.73
2019-05-01T05:09:46.159Z,98441.25
2019-05-01T05:12:22.503Z,98443.30
2019-05-01T05:14:54.097Z,98443.08
2019-05-01T05:17:21.965Z,98446.50
2019-05-01T05:19:49.017Z,98453.69
2019-05-01T05:22:16.678Z,98450.45
2019-05-01T05:24:43.253Z,98460.84
2019-05-01T05:27:10.173Z,98458.21
2019-05-01T05:29:36.841Z,98468.27
2019-05-01T05:32:03.546Z,98471.08
2019-05-01T05:34:31.961Z,98473.94
2019-05-01T05:37:02.437Z,98467.94
2019-05-01T05:39:37.720Z,98470.33
2019-05-01T05:42:04.559Z,98471.75
2019-05-01T05:44:31.429Z,98472.12
2019-05-01T05:46:58.043Z,98465.98
2019-05-01T05:49:24.800Z,98473.84
2019-05-01T05:52:11.074Z,98479.47
2019-05-01T05:55:07.849Z,98483.64
2019-05-01T05:57:40.436Z,98488.70
2019-05-01T06:00:25.793Z,98484.05
2019-05-01T06:03:13.118Z,98485.28
2019-05-01T06:05:52.543Z,98489.40
2019-05-01T06:08:24.292Z,98489.23
2019-05-01T06:11:10.888Z,98500.69
2019-05-01T06:13:58.912Z,98493.73
2019-05-01T06:16:41.775Z,98493.88
2019-05-01T06:19:29.364Z,98497.77
2019-05-01T06:22:11.884Z,98491.08
2019-05-01T06:24:42.406Z,98488.17
2019-05-01T06:27:13.743Z,98488.71
2019-05-01T06:29:38.929Z,98490.52
2019-05-01T06:32:06.060Z,98486.12
2019-05-01T06:34:32.721Z,98488.16
2019-05-01T06:36:59.229Z,98486.27
2019-05-01T06:39:26.194Z,98486.98
2019-05-01T06:41:53.004Z,98487.89
2019-05-01T06:44:33.500Z,98482.98
2019-05-01T06:47:21.009Z,98479.96
2019-05-01T06:50:07.492Z,98482.63
2019-05-01T06:52:35.151Z,98477.06
2019-05-01T06:55:01.997Z,98471.34
2019-05-01T06:57:31.063Z,98472.31
2019-05-01T07:00:02.872Z,98470.54
2019-05-01T07:02:29.916Z,98470.63
2019-05-01T07:04:56.752Z,98472.84
2019-05-01T07:07:25.695Z,98473.22
2019-05-01T07:09:53.895Z,98469.13
2019-05-01T07:12:23.977Z,98467.93
2019-05-01T07:14:51.145Z,98463.59
2019-05-01T07:17:18.696Z,98469.51
2019-05-01T07:20:04.799Z,98468.28
2019-05-01T07:22:31.642Z,98478.45
2019-05-01T07:25:04.196Z,98471.20
2019-05-01T07:27:27.924Z,98469.32
2019-05-01T07:29:58.004Z,98471.69
2019-05-01T07:32:24.668Z,98466.59
2019-05-01T07:34:51.455Z,98463.56
2019-05-01T07:37:20.872Z,98465.79
2019-05-01T07:39:49.858Z,98459.55
2019-05-01T07:42:30.183Z,98454.48
2019-05-01T07:45:03.905Z,98458.67
2019-05-01T07:47:39.257Z,98452.23
2019-05-01T07:50:08.008Z,98456.91
2019-05-01T07:52:35.212Z,98456.66
2019-05-01T07:55:02.018Z,98449.42
2019-05-01T07:57:28.642Z,98452.31
2019-05-01T07:59:58.204Z,98453.95
2019-05-01T08:02:25.814Z,98451.89
2019-05-01T08:04:53.686Z,98451.95
2019-05-01T08:07:20.183Z,98448.17
2019-05-01T08:09:50.242Z,98453.23
2019-05-01T08:12:18.867Z,98449.21
2019-05-01T08:14:47.810Z,98454.53
2019-05-01T08:17:18.104Z,98446.02
2019-05-01T08:19:54.010Z,98444.51
2019-05-01T08:22:22.792Z,98446.42
2019-05-01T08:24:49.339Z,98445.90
2019-05-01T08:27:37.264Z,98446.96
2019-05-01T08:30:22.709Z,98449.94
2019-05-01T08:33:09.814Z,98446.22
2019-05-01T08:35:37.661Z,98442.22
2019-05-01T08:38:04.313Z,98446.91
2019-05-01T08:40:30.835Z,98442.16
2019-05-01T08:42:57.344Z,98447.00
2019-05-01T08:46:01.800Z,98478.63
2019-05-01T08:48:41.647Z,98439.96
2019-05-01T08:51:09.269Z,98441.38
2019-05-01T08:53:35.844Z,98441.19
2019-05-01T08:56:02.819Z,98445.59
2019-05-01T08:58:29.419Z,98434.09
2019-05-01T09:00:55.925Z,98434.09
2019-05-01T09:03:22.452Z,98435.25
2019-05-01T09:05:52.308Z,98432.70
2019-05-01T09:08:17.482Z,98431.77
2019-05-01T09:10:43.968Z,98425.93
2019-05-01T09:13:10.522Z,98419.81
2019-05-01T09:15:37.372Z,98425.59
2019-05-01T09:18:05.140Z,98425.59
2019-05-01T09:20:32.829Z,98420.67
2019-05-01T09:22:59.400Z,98420.36
2019-05-01T09:25:35.393Z,98422.59
2019-05-01T09:28:12.273Z,98415.23
2019-05-01T09:30:47.601Z,98419.56
2019-05-01T09:33:14.126Z,98412.88
2019-05-01T09:35:45.353Z,98416.52
2019-05-01T09:38:09.396Z,98413.72
2019-05-01T09:40:35.974Z,98402.80
2019-05-01T09:43:03.675Z,98410.49
2019-05-01T09:45:30.192Z,98403.45
2019-05-01T09:47:56.911Z,98397.23
2019-05-01T09:50:25.776Z,98404.98
2019-05-01T09:53:13.928Z,98396.30
2019-05-01T09:55:52.513Z,98398.66
2019-05-01T09:58:19.050Z,98391.92
2019-05-01T10:00:48.906Z,98392.46
2019-05-01T10:03:16.871Z,98398.33
2019-05-01T10:05:44.190Z,98395.55
2019-05-01T10:08:12.928Z,98391.44
2019-05-01T10:10:39.410Z,98396.23
2019-05-01T10:13:05.973Z,98384.51
2019-05-01T10:15:32.517Z,98382.65
2019-05-01T10:18:02.265Z,98378.61
2019-05-01T10:20:29.037Z,98376.39
2019-05-01T10:22:55.763Z,98372.50
2019-05-01T10:25:22.316Z,98369.22
2019-05-01T10:27:58.180Z,98368.64
2019-05-01T10:30:37.567Z,98373.57
2019-05-01T10:33:07.297Z,98359.11
2019-05-01T10:35:59.086Z,98361.59
2019-05-01T10:38:25.611Z,98366.41
2019-05-01T10:40:52.171Z,98362.22
2019-05-01T10:43:18.640Z,98356.74
2019-05-01T10:45:45.146Z,98354.67
2019-05-01T10:48:11.636Z,98352.19
2019-05-01T10:50:38.133Z,98347.41
2019-05-01T10:53:04.821Z,98347.59
2019-05-01T10:55:31.303Z,98345.77
2019-05-01T10:57:57.861Z,98340.95
2019-05-01T11:00:24.435Z,98342.25
2019-05-01T11:02:50.902Z,98336.69
2019-05-01T11:05:17.541Z,98337.82
2019-05-01T11:07:44.053Z,98331.07
2019-05-01T11:10:11.109Z,98331.13
2019-05-01T11:12:37.617Z,98331.29
2019-05-01T11:15:04.784Z,98330.11
2019-05-01T11:17:31.261Z,98326.41
2019-05-01T11:19:57.769Z,98323.05
2019-05-01T11:22:24.740Z,98319.31
2019-05-01T11:24:52.357Z,98320.55
2019-05-01T11:27:18.882Z,98320.19
2019-05-01T11:29:45.368Z,98315.50
2019-05-01T11:32:23.411Z,98312.52
2019-05-01T11:35:08.316Z,98309.45
2019-05-01T11:37:40.837Z,98314.53
2019-05-01T11:40:13.074Z,98300.13
2019-05-01T11:42:39.669Z,98305.41
2019-05-01T11:45:07.273Z,98297.94
2019-05-01T11:47:33.890Z,98297.00
2019-05-01T11:50:00.498Z,98295.55
2019-05-01T11:52:28.157Z,98300.01
2019-05-01T11:54:54.707Z,98293.67
2019-05-01T11:57:21.253Z,98290.99
2019-05-01T11:59:48.382Z,98288.00
2019-05-01T12:02:15.203Z,98286.47
2019-05-01T12:04:41.752Z,98289.17
2019-05-01T12:07:08.218Z,98280.39
2019-05-01T12:09:34.863Z,98280.72
2019-05-01T12:12:05.086Z,98284.16
2019-05-01T12:14:31.808Z,98279.99
2019-05-01T12:17:07.325Z,98280.69
2019-05-01T12:19:41.893Z,98276.80
2019-05-01T12:22:08.394Z,98278.44
2019-05-01T12:24:35.888Z,98279.16
2019-05-01T12:27:02.509Z,98273.25
2019-05-01T12:29:29.029Z,98276.28
2019-05-01T12:31:55.538Z,98268.25
2019-05-01T12:34:22.113Z,98268.53
2019-05-01T12:36:49.576Z,98267.36
2019-05-01T12:39:22.938Z,98264.35
2019-05-01T12:41:56.366Z,98256.95
2019-05-01T12:44:22.964Z,98262.03
2019-05-01T12:47:10.293Z,98259.41
2019-05-01T12:49:37.154Z,98259.17
2019-05-01T12:52:10.516Z,98257.30
2019-05-01T12:54:41.998Z,98252.16
2019-05-01T12:57:08.552Z,98250.06
2019-05-01T12:59:35.056Z,98242.02
2019-05-01T13:02:01.808Z,98244.47
2019-05-01T13:04:28.481Z,98247.94
2019-05-01T13:06:56.568Z,98239.72
2019-05-01T13:09:27.104Z,98238.73
2019-05-01T13:11:53.608Z,98235.72
2019-05-01T13:14:22.158Z,98237.39
2019-05-01T13:16:48.946Z,98243.23
2019-05-01T13:19:15.392Z,98238.99
2019-05-01T13:21:42.018Z,98232.86
2019-05-01T13:24:09.091Z,98229.47
2019-05-01T13:26:40.948Z,98219.98
2019-05-01T13:29:13.809Z,98233.27
2019-05-01T13:32:15.414Z,98223.35
2019-05-01T13:34:41.979Z,98225.72
2019-05-01T13:37:08.509Z,98230.84
2019-05-01T13:39:35.193Z,98229.24
2019-05-01T13:42:01.971Z,98225.72
2019-05-01T13:44:30.664Z,98220.16
2019-05-01T13:46:57.216Z,98222.48
2019-05-01T13:49:23.859Z,98214.23
2019-05-01T13:51:52.503Z,98206.59
2019-05-01T13:54:19.094Z,98199.66
2019-05-01T13:56:45.839Z,98196.07
2019-05-01T13:59:13.829Z,98195.53
2019-05-01T14:01:40.638Z,98198.03
2019-05-01T14:04:08.040Z,98194.37
2019-05-01T14:06:34.500Z,98192.39
2019-05-01T14:09:01.015Z,98196.66
2019-05-01T14:11:27.997Z,98196.94
2019-05-01T14:13:54.718Z,98195.61
2019-05-01T14:16:21.867Z,98183.07
2019-05-01T14:18:49.119Z,98188.11
2019-05-01T14:21:23.593Z,98181.47
2019-05-01T14:24:01.602Z,98182.14
2019-05-01T14:26:30.489Z,98183.94
2019-05-01T14:28:57.061Z,98184.22
2019-05-01T14:31:23.988Z,98179.75
2019-05-01T14:33:50.956Z,98176.83
2019-05-01T14:36:17.477Z,98172.72
2019-05-01T14:38:44.150Z,98174.72
2019-05-01T14:41:10.686Z,98178.77
2019-05-01T14:43:37.928Z,98180.44
2019-05-01T14:46:04.570Z,98179.42
2019-05-01T14:48:31.221Z,98179.55
2019-05-01T14:50:58.088Z,98176.84
2019-05-01T14:53:25.892Z,98172.11
2019-05-01T14:55:52.509Z,98169.55
2019-05-01T14:58:19.188Z,98165.28
2019-05-01T15:00:46.061Z,98171.85
2019-05-01T15:03:12.563Z,98169.99
2019-05-01T15:05:39.111Z,98172.80
2019-05-01T15:08:06.202Z,98166.17
2019-05-01T15:10:32.911Z,98165.52
2019-05-01T15:13:02.004Z,98158.20
2019-05-01T15:15:52.135Z,98171.52
2019-05-01T15:18:24.814Z,98165.28
2019-05-01T15:20:51.359Z,98158.72
2019-05-01T15:23:20.358Z,98161.80
2019-05-01T15:25:47.356Z,98166.07
2019-05-01T15:28:13.826Z,98154.39
2019-05-01T15:30:42.001Z,98157.03
2019-05-01T15:33:09.143Z,98151.86
2019-05-01T15:35:36.653Z,98151.44
2019-05-01T15:38:03.690Z,98154.11
2019-05-01T15:40:47.227Z,98150.54
2019-05-01T15:43:31.990Z,98154.55
2019-05-01T15:45:58.599Z,98150.75
2019-05-01T15:48:25.210Z,98144.94
2019-05-01T15:50:51.782Z,98143.66
2019-05-01T15:53:18.292Z,98141.87
2019-05-01T15:55:46.592Z,98145.69
2019-05-01T15:58:13.622Z,98143.84
2019-05-01T16:00:40.191Z,98145.06
2019-05-01T16:03:06.669Z,98139.68
2019-05-01T16:05:33.277Z,98143.36
2019-05-01T16:08:09.387Z,98135.98
2019-05-01T16:10:33.775Z,98134.44
2019-05-01T16:13:01.565Z,98135.03
2019-05-01T16:15:29.750Z,98137.08
2019-05-01T16:17:56.687Z,98132.69
2019-05-01T16:20:24.279Z,98129.16
2019-05-01T16:22:50.747Z,98131.64
2019-05-01T16:25:17.428Z,98132.91
2019-05-01T16:27:44.254Z,98124.23
2019-05-01T16:30:12.891Z,98129.56
2019-05-01T16:32:39.444Z,98134.48
2019-05-01T16:35:06.347Z,98127.44
2019-05-01T16:37:32.885Z,98126.68
2019-05-01T16:40:31.533Z,98119.27
2019-05-01T16:42:58.290Z,98122.02
2019-05-01T16:45:25.544Z,98113.20
2019-05-01T16:47:52.160Z,98114.54
2019-05-01T16:50:23.625Z,98105.22
2019-05-01T16:52:50.393Z,98113.95
2019-05-01T16:55:16.970Z,98111.36
2019-05-01T16:57:43.489Z,98113.45
2019-05-01T17:00:10.990Z,98107.86
2019-05-01T17:03:10.306Z,98114.67
2019-05-01T17:05:58.857Z,98105.88
2019-05-01T17:08:45.723Z,98113.83
2019-05-01T17:11:12.542Z,98112.66
2019-05-01T17:13:39.186Z,98112.66
2019-05-01T17:16:05.821Z,98105.48
2019-05-01T17:18:32.309Z,98113.48
2019-05-01T17:20:58.843Z,98113.48
2019-05-01T17:23:25.373Z,98109.30
2019-05-01T17:25:52.937Z,98105.61
2019-05-01T17:28:19.447Z,98094.79
2019-05-01T17:30:49.362Z,98097.80
2019-05-01T17:33:20.626Z,98098.55
2019-05-01T17:35:44.538Z,98104.28
2019-05-01T17:38:11.059Z,98103.90
2019-05-01T17:40:37.520Z,98096.52
2019-05-01T17:43:08.153Z,98100.51
2019-05-01T17:45:34.794Z,98091.25
2019-05-01T17:48:01.085Z,98092.06
2019-05-01T17:50:27.535Z,98090.52
2019-05-01T17:52:54.536Z,98091.38
2019-05-01T17:55:21.229Z,98094.84
2019-05-01T17:57:47.723Z,98093.48
2019-05-01T18:00:39.781Z,98090.45
2019-05-01T18:03:18.120Z,98088.92
2019-05-01T18:06:13.198Z,98082.63
2019-05-01T18:08:39.741Z,98087.52
2019-05-01T18:11:09.273Z,98084.83
2019-05-01T18:13:35.021Z,98080.75
2019-05-01T18:16:01.979Z,98075.66
2019-05-01T18:18:28.543Z,98079.78
2019-05-01T18:20:57.247Z,98074.73
2019-05-01T18:23:42.835Z,98077.45
2019-05-01T18:26:18.664Z,98075.53
2019-05-01T18:28:55.388Z,98072.91
2019-05-01T18:31:27.993Z,98078.79
2019-05-01T18:33:56.997Z,98075.58
2019-05-01T18:36:30.990Z,98075.58
2019-05-01T18:39:01.835Z,98076.97
2019-05-01T18:41:41.253Z,98076.73
2019-05-01T18:44:10.185Z,98078.91
2019-05-01T18:46:37.760Z,98068.50
2019-05-01T18:49:04.389Z,98069.15
2019-05-01T18:51:31.226Z,98071.14
2019-05-01T18:53:58.899Z,98064.19
2019-05-01T18:56:26.654Z,98075.89
2019-05-01T18:58:53.223Z,98074.33
2019-05-01T19:01:20.232Z,98080.09
2019-05-01T19:03:46.774Z,98069.01
2019-05-01T19:06:13.270Z,98082.34
2019-05-01T19:08:40.221Z,98083.28
2019-05-01T19:11:12.839Z,98083.28
2019-05-01T19:13:37.886Z,98079.43
2019-05-01T19:16:08.290Z,98080.60
2019-05-01T19:18:33.494Z,98084.95
2019-05-01T19:21:00.172Z,98072.42
2019-05-01T19:23:33.177Z,98073.98
2019-05-01T19:26:03.579Z,98073.80
2019-05-01T19:28:27.772Z,98078.45
2019-05-01T19:30:59.748Z,98072.30
2019-05-01T19:33:26.371Z,98068.98
2019-05-01T19:35:54.258Z,98075.70
2019-05-01T19:38:20.756Z,98063.94
2019-05-01T19:40:47.641Z,98069.20
2019-05-01T19:43:14.197Z,98067.00
2019-05-01T19:45:40.917Z,98063.67
2019-05-01T19:48:07.497Z,98066.02
2019-05-01T19:50:39.854Z,98062.72
2019-05-01T19:53:04.803Z,98070.33
2019-05-01T19:55:33.711Z,98061.07
2019-05-01T19:58:00.799Z,98057.28
2019-05-01T20:00:57.961Z,98064.69
2019-05-01T20:03:24.640Z,98068.47
2019-05-01T20:05:52.371Z,98065.50
2019-05-01T20:08:19.161Z,98064.77
2019-05-01T20:10:45.792Z,98066.48
2019-05-01T20:13:15.859Z,98063.54
2019-05-01T20:15:42.909Z,98063.61
2019-05-01T20:18:09.523Z,98069.86
2019-05-01T20:20:36.314Z,98066.42
2019-05-01T20:23:02.944Z,98071.98
2019-05-01T20:25:29.643Z,98069.44
2019-05-01T20:28:02.158Z,98074.92
2019-05-01T20:30:29.766Z,98065.82
2019-05-01T20:33:02.445Z,98068.52
2019-05-01T20:35:34.243Z,98069.52
2019-05-01T20:38:00.796Z,98070.44
2019-05-01T20:40:27.338Z,98063.46
2019-05-01T20:42:54.012Z,98065.70
2019-05-01T20:45:20.684Z,98064.72
2019-05-01T20:47:48.172Z,98063.06
2019-05-01T20:50:15.329Z,98062.73
2019-05-01T20:52:43.827Z,98065.11
2019-05-01T20:55:10.414Z,98062.00
2019-05-01T20:57:38.955Z,98063.09
2019-05-01T21:00:11.457Z,98065.14
2019-05-01T21:02:38.898Z,98064.83
2019-05-01T21:05:16.294Z,98060.19
2019-05-01T21:07:56.212Z,98063.83
2019-05-01T21:10:24.820Z,98063.83
2019-05-01T21:12:51.088Z,98068.28
2019-05-01T21:15:19.999Z,98060.51
2019-05-01T21:17:49.223Z,98061.97
2019-05-01T21:20:14.457Z,98061.62
2019-05-01T21:22:41.061Z,98062.27
2019-05-01T21:25:08.116Z,98063.48
2019-05-01T21:27:34.721Z,98059.30
2019-05-01T21:30:01.374Z,98061.50
2019-05-01T21:32:27.974Z,98059.78
2019-05-01T21:34:54.583Z,98056.67
2019-05-01T21:37:21.102Z,98055.49
2019-05-01T21:39:47.821Z,98052.81
2019-05-01T21:42:16.116Z,98048.06
2019-05-01T21:44:43.707Z,98052.92
2019-05-01T21:47:10.324Z,98047.27
2019-05-01T21:49:36.923Z,98045.43
2019-05-01T21:52:07.397Z,98047.72
2019-05-01T21:54:34.193Z,98040.57
2019-05-01T21:57:00.865Z,98039.71
2019-05-01T21:59:29.063Z,98042.00
2019-05-01T22:01:55.607Z,98037.93
2019-05-01T22:04:22.308Z,98035.01
2019-05-01T22:06:51.874Z,98032.11
2019-05-01T22:09:21.684Z,98024.88
2019-05-01T22:11:48.299Z,98031.27
2019-05-01T22:14:25.132Z,98026.20
2019-05-01T22:16:53.185Z,98025.80
2019-05-01T22:19:20.432Z,98026.59
2019-05-01T22:22:05.230Z,98022.66
2019-05-01T22:24:39.857Z,98028.42
2019-05-01T22:27:13.734Z,98034.16
2019-05-01T22:29:46.616Z,98028.95
2019-05-01T22:32:21.879Z,98025.88
2019-05-01T22:34:59.376Z,98029.98
2019-05-01T22:37:26.002Z,98025.17
2019-05-01T22:40:00.434Z,98024.21
2019-05-01T22:42:26.961Z,98024.21
2019-05-01T22:44:53.541Z,98016.78
2019-05-01T22:47:20.511Z,98011.02
2019-05-01T22:49:47.178Z,98016.38
2019-05-01T22:52:13.639Z,98015.98
2019-05-01T22:54:44.830Z,98011.53
2019-05-01T22:57:08.862Z,98016.33
2019-05-01T22:59:35.326Z,98011.13
2019-05-01T23:02:11.738Z,98017.77
2019-05-01T23:04:38.666Z,98014.85
2019-05-01T23:07:05.130Z,98021.02
2019-05-01T23:09:32.350Z,98010.80
2019-05-01T23:11:58.940Z,98011.73
2019-05-01T23:14:26.114Z,98002.59
2019-05-01T23:17:03.375Z,98001.38
2019-05-01T23:19:33.227Z,97999.74
2019-05-01T23:22:00.024Z,97996.44
2019-05-01T23:24:26.511Z,97992.25
2019-05-01T23:26:53.091Z,97984.95
2019-05-01T23:29:19.547Z,97992.52
2019-05-01T23:31:46.030Z,97985.70
2019-05-01T23:34:12.655Z,97978.34
2019-05-01T23:36:39.137Z,97983.89
2019-05-01T23:39:05.676Z,97979.55
2019-05-01T23:41:45.280Z,97973.97
2019-05-01T23:44:03.577Z,97970.02
2019-05-01T23:46:29.701Z,97967.50
2019-05-01T23:48:56.344Z,97968.59
2019-05-01T23:51:23.793Z,97961.39
2019-05-01T23:53:51.320Z,97962.06
2019-05-01T23:56:17.955Z,97957.89
2019-05-01T23:58:44.585Z,97956.23
